sensor_id;sensor_type;location;lat;lon;timestamp;temperature;humidity
14723;DHT22;7452;55.594;12.986;2022-12-15T00:01:41;1.10;99.90
14723;DHT22;7452;55.594;12.986;2022-12-15T00:04:26;1.10;99.90
14723;DHT22;7452;55.594;12.986;2022-12-15T00:07:11;1.10;99.90
14723;DHT22;7452;55.594;12.986;2022-12-15T00:09:56;1.10;99.90
14723;DHT22;7452;55.594;12.986;2022-12-15T00:12:41;1.10;99.90
14723;DHT22;7452;55.594;12.986;2022-12-15T00:15:27;1.10;99.90
14723;DHT22;7452;55.594;12.986;2022-12-15T00:18:12;1.00;99.90
14723;DHT22;7452;55.594;12.986;2022-12-15T00:20:58;1.00;99.90
14723;DHT22;7452;55.594;12.986;2022-12-15T00:23:43;1.10;99.90
14723;DHT22;7452;55.594;12.986;2022-12-15T00:26:28;1.00;99.90
14723;DHT22;7452;55.594;12.986;2022-12-15T00:29:13;1.10;99.90
14723;DHT22;7452;55.594;12.986;2022-12-15T00:32:03;1.00;99.90
14723;DHT22;7452;55.594;12.986;2022-12-15T00:34:48;0.90;99.90
14723;DHT22;7452;55.594;12.986;2022-12-15T00:37:32;0.90;99.90
14723;DHT22;7452;55.594;12.986;2022-12-15T00:40:17;0.90;99.90
14723;DHT22;7452;55.594;12.986;2022-12-15T00:42:45;0.80;99.90
14723;DHT22;7452;55.594;12.986;2022-12-15T00:45:13;0.90;99.90
14723;DHT22;7452;55.594;12.986;2022-12-15T00:47:44;0.70;99.90
14723;DHT22;7452;55.594;12.986;2022-12-15T00:50:12;0.80;99.90
14723;DHT22;7452;55.594;12.986;2022-12-15T00:52:57;0.70;99.90
14723;DHT22;7452;55.594;12.986;2022-12-15T00:55:42;0.80;99.90
14723;DHT22;7452;55.594;12.986;2022-12-15T00:58:26;0.80;99.90
14723;DHT22;7452;55.594;12.986;2022-12-15T01:01:11;0.80;99.90
14723;DHT22;7452;55.594;12.986;2022-12-15T01:04:04;0.80;99.90
14723;DHT22;7452;55.594;12.986;2022-12-15T01:06:49;0.90;99.90
14723;DHT22;7452;55.594;12.986;2022-12-15T01:09:34;0.90;99.90
14723;DHT22;7452;55.594;12.986;2022-12-15T01:12:18;0.90;99.90
14723;DHT22;7452;55.594;12.986;2022-12-15T01:15:03;0.90;99.90
14723;DHT22;7452;55.594;12.986;2022-12-15T01:17:50;0.90;99.90
14723;DHT22;7452;55.594;12.986;2022-12-15T01:20:36;0.90;99.90
14723;DHT22;7452;55.594;12.986;2022-12-15T01:23:06;0.90;99.90
14723;DHT22;7452;55.594;12.986;2022-12-15T01:25:33;0.90;99.90
14723;DHT22;7452;55.594;12.986;2022-12-15T01:28:02;0.90;99.90
14723;DHT22;7452;55.594;12.986;2022-12-15T01:30:31;0.90;99.90
14723;DHT22;7452;55.594;12.986;2022-12-15T01:32:58;0.80;99.90
14723;DHT22;7452;55.594;12.986;2022-12-15T01:35:26;0.80;99.90
14723;DHT22;7452;55.594;12.986;2022-12-15T01:38:02;0.80;99.90
14723;DHT22;7452;55.594;12.986;2022-12-15T01:40:29;0.80;99.90
14723;DHT22;7452;55.594;12.986;2022-12-15T01:43:17;0.80;99.90
14723;DHT22;7452;55.594;12.986;2022-12-15T01:45:56;0.80;99.90
14723;DHT22;7452;55.594;12.986;2022-12-15T01:48:29;0.80;99.90
14723;DHT22;7452;55.594;12.986;2022-12-15T01:51:09;0.80;99.90
14723;DHT22;7452;55.594;12.986;2022-12-15T01:53:46;0.80;99.90
14723;DHT22;7452;55.594;12.986;2022-12-15T01:56:14;0.70;99.90
14723;DHT22;7452;55.594;12.986;2022-12-15T01:58:42;0.70;99.90
14723;DHT22;7452;55.594;12.986;2022-12-15T02:01:12;0.70;99.90
14723;DHT22;7452;55.594;12.986;2022-12-15T02:03:40;0.70;99.90
14723;DHT22;7452;55.594;12.986;2022-12-15T02:06:10;0.70;99.90
14723;DHT22;7452;55.594;12.986;2022-12-15T02:08:46;0.70;99.90
14723;DHT22;7452;55.594;12.986;2022-12-15T02:14:09;0.80;99.90
14723;DHT22;7452;55.594;12.986;2022-12-15T02:16:45;0.80;99.90
14723;DHT22;7452;55.594;12.986;2022-12-15T02:19:33;0.80;99.90
14723;DHT22;7452;55.594;12.986;2022-12-15T02:22:16;0.80;99.90
14723;DHT22;7452;55.594;12.986;2022-12-15T02:25:06;0.80;99.90
14723;DHT22;7452;55.594;12.986;2022-12-15T02:27:48;0.90;99.90
14723;DHT22;7452;55.594;12.986;2022-12-15T02:30:36;0.90;99.90
14723;DHT22;7452;55.594;12.986;2022-12-15T02:33:10;0.90;99.90
14723;DHT22;7452;55.594;12.986;2022-12-15T02:35:51;0.90;99.90
14723;DHT22;7452;55.594;12.986;2022-12-15T02:38:30;1.00;99.90
14723;DHT22;7452;55.594;12.986;2022-12-15T02:40:58;1.00;99.90
14723;DHT22;7452;55.594;12.986;2022-12-15T02:43:26;1.00;99.90
14723;DHT22;7452;55.594;12.986;2022-12-15T02:46:10;1.00;99.90
14723;DHT22;7452;55.594;12.986;2022-12-15T02:48:52;1.00;99.90
14723;DHT22;7452;55.594;12.986;2022-12-15T02:51:34;1.00;99.90
14723;DHT22;7452;55.594;12.986;2022-12-15T02:54:22;1.00;99.90
14723;DHT22;7452;55.594;12.986;2022-12-15T02:56:59;0.90;99.90
14723;DHT22;7452;55.594;12.986;2022-12-15T02:59:37;0.90;99.90
14723;DHT22;7452;55.594;12.986;2022-12-15T03:02:09;1.00;99.90
14723;DHT22;7452;55.594;12.986;2022-12-15T03:04:38;0.90;99.90
14723;DHT22;7452;55.594;12.986;2022-12-15T03:07:09;0.80;99.90
14723;DHT22;7452;55.594;12.986;2022-12-15T03:09:38;0.90;99.90
14723;DHT22;7452;55.594;12.986;2022-12-15T03:12:06;0.90;99.90
14723;DHT22;7452;55.594;12.986;2022-12-15T03:14:35;0.80;99.90
14723;DHT22;7452;55.594;12.986;2022-12-15T03:17:04;0.90;99.90
14723;DHT22;7452;55.594;12.986;2022-12-15T03:19:35;0.90;99.90
14723;DHT22;7452;55.594;12.986;2022-12-15T03:22:03;0.90;99.90
14723;DHT22;7452;55.594;12.986;2022-12-15T03:24:30;0.90;99.90
14723;DHT22;7452;55.594;12.986;2022-12-15T03:26:57;1.00;99.90
14723;DHT22;7452;55.594;12.986;2022-12-15T03:29:25;0.90;99.90
14723;DHT22;7452;55.594;12.986;2022-12-15T03:31:53;1.00;99.90
14723;DHT22;7452;55.594;12.986;2022-12-15T03:34:23;1.00;99.90
14723;DHT22;7452;55.594;12.986;2022-12-15T03:36:59;1.00;99.90
14723;DHT22;7452;55.594;12.986;2022-12-15T03:39:26;1.00;99.90
14723;DHT22;7452;55.594;12.986;2022-12-15T03:41:53;1.00;99.90
14723;DHT22;7452;55.594;12.986;2022-12-15T03:44:20;1.00;99.90
14723;DHT22;7452;55.594;12.986;2022-12-15T03:46:49;1.00;99.90
14723;DHT22;7452;55.594;12.986;2022-12-15T03:49:18;1.10;99.90
14723;DHT22;7452;55.594;12.986;2022-12-15T03:51:46;1.00;99.90
14723;DHT22;7452;55.594;12.986;2022-12-15T03:54:19;1.00;99.90
14723;DHT22;7452;55.594;12.986;2022-12-15T03:56:50;1.00;99.90
14723;DHT22;7452;55.594;12.986;2022-12-15T03:59:21;1.00;99.90
14723;DHT22;7452;55.594;12.986;2022-12-15T04:01:50;0.90;99.90
14723;DHT22;7452;55.594;12.986;2022-12-15T04:04:17;0.90;99.90
14723;DHT22;7452;55.594;12.986;2022-12-15T04:06:44;0.90;99.90
14723;DHT22;7452;55.594;12.986;2022-12-15T04:09:13;0.80;99.90
14723;DHT22;7452;55.594;12.986;2022-12-15T04:11:44;0.70;99.90
14723;DHT22;7452;55.594;12.986;2022-12-15T04:14:12;0.60;99.90
14723;DHT22;7452;55.594;12.986;2022-12-15T04:16:39;0.60;99.90
14723;DHT22;7452;55.594;12.986;2022-12-15T04:19:06;0.50;99.90
14723;DHT22;7452;55.594;12.986;2022-12-15T04:21:53;0.50;99.90
14723;DHT22;7452;55.594;12.986;2022-12-15T04:24:22;0.50;99.90
14723;DHT22;7452;55.594;12.986;2022-12-15T04:27:09;0.50;99.90
14723;DHT22;7452;55.594;12.986;2022-12-15T04:29:53;0.50;99.90
14723;DHT22;7452;55.594;12.986;2022-12-15T04:32:37;0.40;99.90
14723;DHT22;7452;55.594;12.986;2022-12-15T04:35:22;0.30;99.90
14723;DHT22;7452;55.594;12.986;2022-12-15T04:38:06;0.20;99.90
14723;DHT22;7452;55.594;12.986;2022-12-15T04:40:52;0.20;99.90
14723;DHT22;7452;55.594;12.986;2022-12-15T04:43:39;0.20;99.90
14723;DHT22;7452;55.594;12.986;2022-12-15T04:46:23;0.20;99.90
14723;DHT22;7452;55.594;12.986;2022-12-15T04:49:13;0.20;99.90
14723;DHT22;7452;55.594;12.986;2022-12-15T04:51:57;0.20;99.90
14723;DHT22;7452;55.594;12.986;2022-12-15T04:54:47;0.20;99.90
14723;DHT22;7452;55.594;12.986;2022-12-15T04:57:32;0.20;99.90
14723;DHT22;7452;55.594;12.986;2022-12-15T05:00:24;0.30;99.90
14723;DHT22;7452;55.594;12.986;2022-12-15T05:03:08;0.30;99.90
14723;DHT22;7452;55.594;12.986;2022-12-15T05:05:53;0.30;99.90
14723;DHT22;7452;55.594;12.986;2022-12-15T05:08:38;0.30;99.90
14723;DHT22;7452;55.594;12.986;2022-12-15T05:11:24;0.50;99.90
14723;DHT22;7452;55.594;12.986;2022-12-15T05:14:10;0.40;99.90
14723;DHT22;7452;55.594;12.986;2022-12-15T05:16:56;0.40;99.90
14723;DHT22;7452;55.594;12.986;2022-12-15T05:19:41;0.40;99.90
14723;DHT22;7452;55.594;12.986;2022-12-15T05:22:25;0.40;99.90
14723;DHT22;7452;55.594;12.986;2022-12-15T05:25:10;0.50;99.90
14723;DHT22;7452;55.594;12.986;2022-12-15T05:27:55;0.50;99.90
14723;DHT22;7452;55.594;12.986;2022-12-15T05:30:40;0.50;99.90
14723;DHT22;7452;55.594;12.986;2022-12-15T05:33:27;0.50;99.90
14723;DHT22;7452;55.594;12.986;2022-12-15T05:35:56;0.50;99.90
14723;DHT22;7452;55.594;12.986;2022-12-15T05:38:24;0.50;99.90
14723;DHT22;7452;55.594;12.986;2022-12-15T05:40:51;0.50;99.90
14723;DHT22;7452;55.594;12.986;2022-12-15T05:43:19;0.50;99.90
14723;DHT22;7452;55.594;12.986;2022-12-15T05:45:46;0.50;99.90
14723;DHT22;7452;55.594;12.986;2022-12-15T05:48:13;0.60;99.90
14723;DHT22;7452;55.594;12.986;2022-12-15T05:50:45;0.50;99.90
14723;DHT22;7452;55.594;12.986;2022-12-15T05:53:13;0.60;99.90
14723;DHT22;7452;55.594;12.986;2022-12-15T05:55:40;0.60;99.90
14723;DHT22;7452;55.594;12.986;2022-12-15T05:58:09;0.60;99.90
14723;DHT22;7452;55.594;12.986;2022-12-15T06:00:38;0.70;99.90
14723;DHT22;7452;55.594;12.986;2022-12-15T06:03:07;0.70;99.90
14723;DHT22;7452;55.594;12.986;2022-12-15T06:05:35;0.70;99.90
14723;DHT22;7452;55.594;12.986;2022-12-15T06:08:08;0.70;99.90
14723;DHT22;7452;55.594;12.986;2022-12-15T06:10:37;0.70;99.90
14723;DHT22;7452;55.594;12.986;2022-12-15T06:13:06;0.70;99.90
14723;DHT22;7452;55.594;12.986;2022-12-15T06:15:35;0.70;99.90
14723;DHT22;7452;55.594;12.986;2022-12-15T06:18:04;0.70;99.90
14723;DHT22;7452;55.594;12.986;2022-12-15T06:20:38;0.70;99.90
14723;DHT22;7452;55.594;12.986;2022-12-15T06:23:07;0.80;99.90
14723;DHT22;7452;55.594;12.986;2022-12-15T06:25:35;0.80;99.90
14723;DHT22;7452;55.594;12.986;2022-12-15T06:28:03;0.80;99.90
14723;DHT22;7452;55.594;12.986;2022-12-15T06:30:32;0.80;99.90
14723;DHT22;7452;55.594;12.986;2022-12-15T06:32:59;0.80;99.90
14723;DHT22;7452;55.594;12.986;2022-12-15T06:35:27;0.90;99.90
14723;DHT22;7452;55.594;12.986;2022-12-15T06:37:54;1.00;99.90
14723;DHT22;7452;55.594;12.986;2022-12-15T06:40:24;0.90;99.90
14723;DHT22;7452;55.594;12.986;2022-12-15T06:42:53;0.90;99.90
14723;DHT22;7452;55.594;12.986;2022-12-15T06:45:23;0.90;99.90
14723;DHT22;7452;55.594;12.986;2022-12-15T06:47:53;0.90;99.90
14723;DHT22;7452;55.594;12.986;2022-12-15T06:50:20;0.90;99.90
14723;DHT22;7452;55.594;12.986;2022-12-15T06:52:47;0.90;99.90
14723;DHT22;7452;55.594;12.986;2022-12-15T06:55:14;0.90;99.90
14723;DHT22;7452;55.594;12.986;2022-12-15T06:57:46;0.90;99.90
14723;DHT22;7452;55.594;12.986;2022-12-15T07:00:14;0.90;99.90
14723;DHT22;7452;55.594;12.986;2022-12-15T07:02:42;0.90;99.90
14723;DHT22;7452;55.594;12.986;2022-12-15T07:05:09;0.90;99.90
14723;DHT22;7452;55.594;12.986;2022-12-15T07:07:37;0.90;99.90
14723;DHT22;7452;55.594;12.986;2022-12-15T07:10:05;0.90;99.90
14723;DHT22;7452;55.594;12.986;2022-12-15T07:12:34;1.00;99.90
14723;DHT22;7452;55.594;12.986;2022-12-15T07:15:06;1.00;99.90
14723;DHT22;7452;55.594;12.986;2022-12-15T07:17:34;1.00;99.90
14723;DHT22;7452;55.594;12.986;2022-12-15T07:20:06;1.00;99.90
14723;DHT22;7452;55.594;12.986;2022-12-15T07:22:34;1.00;99.90
14723;DHT22;7452;55.594;12.986;2022-12-15T07:25:01;1.00;99.90
14723;DHT22;7452;55.594;12.986;2022-12-15T07:27:32;0.90;99.90
14723;DHT22;7452;55.594;12.986;2022-12-15T07:30:02;1.00;99.90
14723;DHT22;7452;55.594;12.986;2022-12-15T07:32:35;1.00;99.90
14723;DHT22;7452;55.594;12.986;2022-12-15T07:35:06;1.00;99.90
14723;DHT22;7452;55.594;12.986;2022-12-15T07:37:34;0.90;99.90
14723;DHT22;7452;55.594;12.986;2022-12-15T07:40:06;1.00;99.90
14723;DHT22;7452;55.594;12.986;2022-12-15T07:42:34;0.90;99.90
14723;DHT22;7452;55.594;12.986;2022-12-15T07:45:02;0.90;99.90
14723;DHT22;7452;55.594;12.986;2022-12-15T07:47:31;0.90;99.90
14723;DHT22;7452;55.594;12.986;2022-12-15T07:50:00;0.90;99.90
14723;DHT22;7452;55.594;12.986;2022-12-15T07:52:27;0.90;99.90
14723;DHT22;7452;55.594;12.986;2022-12-15T07:54:55;0.90;99.90
14723;DHT22;7452;55.594;12.986;2022-12-15T07:57:23;0.90;99.90
14723;DHT22;7452;55.594;12.986;2022-12-15T07:59:50;0.90;99.90
14723;DHT22;7452;55.594;12.986;2022-12-15T08:02:18;0.90;99.90
14723;DHT22;7452;55.594;12.986;2022-12-15T08:04:48;0.90;99.90
14723;DHT22;7452;55.594;12.986;2022-12-15T08:07:16;0.90;99.90
14723;DHT22;7452;55.594;12.986;2022-12-15T08:09:44;0.80;99.90
14723;DHT22;7452;55.594;12.986;2022-12-15T08:12:13;0.80;99.90
14723;DHT22;7452;55.594;12.986;2022-12-15T08:14:41;0.80;99.90
14723;DHT22;7452;55.594;12.986;2022-12-15T08:17:08;0.80;99.90
14723;DHT22;7452;55.594;12.986;2022-12-15T08:19:36;0.80;99.90
14723;DHT22;7452;55.594;12.986;2022-12-15T08:22:05;0.80;99.90
14723;DHT22;7452;55.594;12.986;2022-12-15T08:24:35;0.80;99.90
14723;DHT22;7452;55.594;12.986;2022-12-15T08:27:03;0.80;99.90
14723;DHT22;7452;55.594;12.986;2022-12-15T08:29:32;0.80;99.90
14723;DHT22;7452;55.594;12.986;2022-12-15T08:32:02;0.80;99.90
14723;DHT22;7452;55.594;12.986;2022-12-15T08:34:31;0.80;99.90
14723;DHT22;7452;55.594;12.986;2022-12-15T08:37:00;0.80;99.90
14723;DHT22;7452;55.594;12.986;2022-12-15T08:39:29;0.90;99.90
14723;DHT22;7452;55.594;12.986;2022-12-15T08:41:57;0.80;99.90
14723;DHT22;7452;55.594;12.986;2022-12-15T08:44:24;0.70;99.90
14723;DHT22;7452;55.594;12.986;2022-12-15T08:46:51;0.70;99.90
14723;DHT22;7452;55.594;12.986;2022-12-15T08:49:19;0.70;99.90
14723;DHT22;7452;55.594;12.986;2022-12-15T08:51:46;0.70;99.90
14723;DHT22;7452;55.594;12.986;2022-12-15T08:54:13;0.70;99.90
14723;DHT22;7452;55.594;12.986;2022-12-15T08:56:44;0.70;99.90
14723;DHT22;7452;55.594;12.986;2022-12-15T08:59:12;0.80;99.90
14723;DHT22;7452;55.594;12.986;2022-12-15T09:01:43;0.80;99.90
14723;DHT22;7452;55.594;12.986;2022-12-15T09:04:12;0.70;99.90
14723;DHT22;7452;55.594;12.986;2022-12-15T09:06:43;0.60;99.90
14723;DHT22;7452;55.594;12.986;2022-12-15T09:09:13;0.50;99.90
14723;DHT22;7452;55.594;12.986;2022-12-15T09:11:47;0.50;99.90
14723;DHT22;7452;55.594;12.986;2022-12-15T09:14:16;0.50;99.90
14723;DHT22;7452;55.594;12.986;2022-12-15T09:16:59;0.50;99.90
14723;DHT22;7452;55.594;12.986;2022-12-15T09:19:29;0.50;99.90
14723;DHT22;7452;55.594;12.986;2022-12-15T09:22:02;0.50;99.90
14723;DHT22;7452;55.594;12.986;2022-12-15T09:24:32;0.50;99.90
14723;DHT22;7452;55.594;12.986;2022-12-15T09:27:15;0.50;99.90
14723;DHT22;7452;55.594;12.986;2022-12-15T09:29:46;0.40;99.90
14723;DHT22;7452;55.594;12.986;2022-12-15T09:32:21;0.40;99.90
14723;DHT22;7452;55.594;12.986;2022-12-15T09:34:50;0.40;99.90
14723;DHT22;7452;55.594;12.986;2022-12-15T09:37:31;0.60;99.90
14723;DHT22;7452;55.594;12.986;2022-12-15T09:40:00;0.70;99.90
14723;DHT22;7452;55.594;12.986;2022-12-15T09:42:33;0.90;99.90
14723;DHT22;7452;55.594;12.986;2022-12-15T09:45:08;1.00;99.90
14723;DHT22;7452;55.594;12.986;2022-12-15T09:47:45;1.20;99.90
14723;DHT22;7452;55.594;12.986;2022-12-15T09:50:19;1.30;99.90
14723;DHT22;7452;55.594;12.986;2022-12-15T09:52:53;1.50;99.90
14723;DHT22;7452;55.594;12.986;2022-12-15T09:55:28;1.50;99.90
14723;DHT22;7452;55.594;12.986;2022-12-15T09:58:16;1.60;99.90
14723;DHT22;7452;55.594;12.986;2022-12-15T10:01:08;1.60;99.90
14723;DHT22;7452;55.594;12.986;2022-12-15T10:03:49;1.70;99.90
14723;DHT22;7452;55.594;12.986;2022-12-15T10:06:20;1.80;99.90
14723;DHT22;7452;55.594;12.986;2022-12-15T10:08:54;1.80;99.90
14723;DHT22;7452;55.594;12.986;2022-12-15T10:11:33;1.90;99.90
14723;DHT22;7452;55.594;12.986;2022-12-15T10:14:26;1.80;99.90
14723;DHT22;7452;55.594;12.986;2022-12-15T10:17:04;1.70;99.90
14723;DHT22;7452;55.594;12.986;2022-12-15T10:19:40;1.60;99.90
14723;DHT22;7452;55.594;12.986;2022-12-15T10:22:15;1.60;99.90
14723;DHT22;7452;55.594;12.986;2022-12-15T10:24:46;1.80;99.90
14723;DHT22;7452;55.594;12.986;2022-12-15T10:27:24;1.80;99.90
14723;DHT22;7452;55.594;12.986;2022-12-15T10:30:00;2.00;99.90
14723;DHT22;7452;55.594;12.986;2022-12-15T10:32:44;2.10;99.90
14723;DHT22;7452;55.594;12.986;2022-12-15T10:35:17;2.20;99.90
14723;DHT22;7452;55.594;12.986;2022-12-15T10:37:47;2.30;99.90
14723;DHT22;7452;55.594;12.986;2022-12-15T10:40:18;2.20;99.90
14723;DHT22;7452;55.594;12.986;2022-12-15T10:42:48;2.10;99.90
14723;DHT22;7452;55.594;12.986;2022-12-15T10:45:34;2.00;99.90
14723;DHT22;7452;55.594;12.986;2022-12-15T10:48:03;1.80;99.90
14723;DHT22;7452;55.594;12.986;2022-12-15T10:50:34;1.60;99.90
14723;DHT22;7452;55.594;12.986;2022-12-15T10:53:07;1.30;99.90
14723;DHT22;7452;55.594;12.986;2022-12-15T10:55:38;1.20;99.90
14723;DHT22;7452;55.594;12.986;2022-12-15T10:58:15;1.10;99.90
14723;DHT22;7452;55.594;12.986;2022-12-15T11:00:48;1.10;99.90
14723;DHT22;7452;55.594;12.986;2022-12-15T11:03:35;1.10;99.90
14723;DHT22;7452;55.594;12.986;2022-12-15T11:06:09;1.00;99.90
14723;DHT22;7452;55.594;12.986;2022-12-15T11:08:42;1.10;99.90
14723;DHT22;7452;55.594;12.986;2022-12-15T11:11:30;1.20;99.90
14723;DHT22;7452;55.594;12.986;2022-12-15T11:14:19;1.30;99.90
14723;DHT22;7452;55.594;12.986;2022-12-15T11:16:54;1.50;99.90
14723;DHT22;7452;55.594;12.986;2022-12-15T11:19:32;1.40;99.90
14723;DHT22;7452;55.594;12.986;2022-12-15T11:22:11;1.20;99.90
14723;DHT22;7452;55.594;12.986;2022-12-15T11:24:49;1.20;99.90
14723;DHT22;7452;55.594;12.986;2022-12-15T11:27:29;1.10;99.90
14723;DHT22;7452;55.594;12.986;2022-12-15T11:30:09;1.10;99.90
14723;DHT22;7452;55.594;12.986;2022-12-15T11:32:48;1.20;99.90
14723;DHT22;7452;55.594;12.986;2022-12-15T11:35:24;1.20;99.90
14723;DHT22;7452;55.594;12.986;2022-12-15T11:37:59;1.20;99.90
14723;DHT22;7452;55.594;12.986;2022-12-15T11:40:33;1.10;99.90
14723;DHT22;7452;55.594;12.986;2022-12-15T11:46:17;0.90;99.90
14723;DHT22;7452;55.594;12.986;2022-12-15T11:51:51;0.90;99.90
14723;DHT22;7452;55.594;12.986;2022-12-15T11:54:30;0.90;99.90
14723;DHT22;7452;55.594;12.986;2022-12-15T11:57:24;0.90;99.90
14723;DHT22;7452;55.594;12.986;2022-12-15T12:00:04;1.00;99.90
14723;DHT22;7452;55.594;12.986;2022-12-15T12:02:45;1.00;99.90
14723;DHT22;7452;55.594;12.986;2022-12-15T12:05:35;1.10;99.90
14723;DHT22;7452;55.594;12.986;2022-12-15T12:08:14;1.20;99.90
14723;DHT22;7452;55.594;12.986;2022-12-15T12:11:04;1.00;99.90
14723;DHT22;7452;55.594;12.986;2022-12-15T12:13:50;1.00;99.90
14723;DHT22;7452;55.594;12.986;2022-12-15T12:16:29;1.00;99.90
14723;DHT22;7452;55.594;12.986;2022-12-15T12:19:02;0.80;99.90
14723;DHT22;7452;55.594;12.986;2022-12-15T12:21:37;0.80;99.90
14723;DHT22;7452;55.594;12.986;2022-12-15T12:24:23;0.70;99.90
14723;DHT22;7452;55.594;12.986;2022-12-15T12:26:59;0.70;99.90
14723;DHT22;7452;55.594;12.986;2022-12-15T12:29:32;0.70;99.90
14723;DHT22;7452;55.594;12.986;2022-12-15T12:32:06;0.70;99.90
14723;DHT22;7452;55.594;12.986;2022-12-15T12:34:53;0.60;99.90
14723;DHT22;7452;55.594;12.986;2022-12-15T12:37:30;0.60;99.90
14723;DHT22;7452;55.594;12.986;2022-12-15T12:40:09;0.50;99.90
14723;DHT22;7452;55.594;12.986;2022-12-15T12:42:47;0.50;99.90
14723;DHT22;7452;55.594;12.986;2022-12-15T12:45:22;0.50;99.90
14723;DHT22;7452;55.594;12.986;2022-12-15T12:47:53;0.50;99.90
14723;DHT22;7452;55.594;12.986;2022-12-15T12:50:26;0.40;99.90
14723;DHT22;7452;55.594;12.986;2022-12-15T12:52:58;0.40;99.90
14723;DHT22;7452;55.594;12.986;2022-12-15T12:55:36;0.40;99.90
14723;DHT22;7452;55.594;12.986;2022-12-15T12:58:30;0.40;99.90
14723;DHT22;7452;55.594;12.986;2022-12-15T13:01:14;0.40;99.90
14723;DHT22;7452;55.594;12.986;2022-12-15T13:03:47;0.40;99.90
14723;DHT22;7452;55.594;12.986;2022-12-15T13:06:56;0.40;99.90
14723;DHT22;7452;55.594;12.986;2022-12-15T13:09:42;0.30;99.90
14723;DHT22;7452;55.594;12.986;2022-12-15T13:12:35;0.30;99.90
14723;DHT22;7452;55.594;12.986;2022-12-15T13:15:09;0.30;99.90
14723;DHT22;7452;55.594;12.986;2022-12-15T13:17:48;0.20;99.90
14723;DHT22;7452;55.594;12.986;2022-12-15T13:20:25;0.20;99.90
14723;DHT22;7452;55.594;12.986;2022-12-15T13:28:50;0.20;99.90
14723;DHT22;7452;55.594;12.986;2022-12-15T13:31:33;0.20;99.90
14723;DHT22;7452;55.594;12.986;2022-12-15T13:34:16;0.20;99.90
14723;DHT22;7452;55.594;12.986;2022-12-15T13:36:59;0.20;99.90
14723;DHT22;7452;55.594;12.986;2022-12-15T13:42:28;0.20;99.90
14723;DHT22;7452;55.594;12.986;2022-12-15T13:45:31;0.20;99.90
14723;DHT22;7452;55.594;12.986;2022-12-15T13:48:13;0.20;99.90
14723;DHT22;7452;55.594;12.986;2022-12-15T13:50:51;0.20;99.90
14723;DHT22;7452;55.594;12.986;2022-12-15T13:53:24;0.20;99.90
14723;DHT22;7452;55.594;12.986;2022-12-15T13:56:03;0.20;99.90
14723;DHT22;7452;55.594;12.986;2022-12-15T13:58:42;0.10;99.90
14723;DHT22;7452;55.594;12.986;2022-12-15T14:01:26;0.10;99.90
14723;DHT22;7452;55.594;12.986;2022-12-15T14:04:05;0.00;99.90
14723;DHT22;7452;55.594;12.986;2022-12-15T14:06:37;0.00;99.90
14723;DHT22;7452;55.594;12.986;2022-12-15T14:09:12;-0.10;99.90
14723;DHT22;7452;55.594;12.986;2022-12-15T14:11:41;-0.20;99.90
14723;DHT22;7452;55.594;12.986;2022-12-15T14:14:16;-0.20;99.90
14723;DHT22;7452;55.594;12.986;2022-12-15T14:16:51;-0.20;99.90
14723;DHT22;7452;55.594;12.986;2022-12-15T14:19:21;-0.30;99.90
14723;DHT22;7452;55.594;12.986;2022-12-15T14:21:52;-0.30;99.90
14723;DHT22;7452;55.594;12.986;2022-12-15T14:24:26;-0.40;99.90
14723;DHT22;7452;55.594;12.986;2022-12-15T14:26:55;-0.50;99.90
14723;DHT22;7452;55.594;12.986;2022-12-15T14:29:25;-0.50;99.90
14723;DHT22;7452;55.594;12.986;2022-12-15T14:31:57;-0.60;99.90
14723;DHT22;7452;55.594;12.986;2022-12-15T14:34:30;-0.60;99.90
14723;DHT22;7452;55.594;12.986;2022-12-15T14:37:02;-0.60;99.90
14723;DHT22;7452;55.594;12.986;2022-12-15T14:39:39;-0.70;99.90
14723;DHT22;7452;55.594;12.986;2022-12-15T14:42:15;-0.70;99.90
14723;DHT22;7452;55.594;12.986;2022-12-15T14:44:49;-0.80;99.90
14723;DHT22;7452;55.594;12.986;2022-12-15T14:47:28;-0.80;99.90
14723;DHT22;7452;55.594;12.986;2022-12-15T14:50:00;-0.90;99.90
14723;DHT22;7452;55.594;12.986;2022-12-15T14:52:30;-0.90;99.90
14723;DHT22;7452;55.594;12.986;2022-12-15T14:55:01;-1.00;99.90
14723;DHT22;7452;55.594;12.986;2022-12-15T14:57:42;-1.10;99.90
14723;DHT22;7452;55.594;12.986;2022-12-15T15:00:26;-1.10;99.90
14723;DHT22;7452;55.594;12.986;2022-12-15T15:03:18;-1.20;99.90
14723;DHT22;7452;55.594;12.986;2022-12-15T15:05:54;-1.30;99.90
14723;DHT22;7452;55.594;12.986;2022-12-15T15:08:30;-1.40;99.90
14723;DHT22;7452;55.594;12.986;2022-12-15T15:11:02;-1.40;99.90
14723;DHT22;7452;55.594;12.986;2022-12-15T15:13:36;-1.40;99.90
14723;DHT22;7452;55.594;12.986;2022-12-15T15:16:13;-1.40;99.90
14723;DHT22;7452;55.594;12.986;2022-12-15T15:18:52;-1.40;99.90
14723;DHT22;7452;55.594;12.986;2022-12-15T15:21:26;-1.40;99.90
14723;DHT22;7452;55.594;12.986;2022-12-15T15:23:59;-1.50;99.90
14723;DHT22;7452;55.594;12.986;2022-12-15T15:26:30;-1.50;99.90
14723;DHT22;7452;55.594;12.986;2022-12-15T15:28:58;-1.50;99.90
14723;DHT22;7452;55.594;12.986;2022-12-15T15:31:34;-1.60;99.90
14723;DHT22;7452;55.594;12.986;2022-12-15T15:34:08;-1.50;99.90
14723;DHT22;7452;55.594;12.986;2022-12-15T15:36:39;-1.60;99.90
14723;DHT22;7452;55.594;12.986;2022-12-15T15:39:13;-1.60;99.90
14723;DHT22;7452;55.594;12.986;2022-12-15T15:41:55;-1.70;99.90
14723;DHT22;7452;55.594;12.986;2022-12-15T15:44:28;-1.70;99.90
14723;DHT22;7452;55.594;12.986;2022-12-15T15:46:57;-1.70;99.90
14723;DHT22;7452;55.594;12.986;2022-12-15T15:49:27;-1.80;99.90
14723;DHT22;7452;55.594;12.986;2022-12-15T15:51:59;-1.80;99.90
14723;DHT22;7452;55.594;12.986;2022-12-15T15:54:33;-1.80;99.90
14723;DHT22;7452;55.594;12.986;2022-12-15T15:57:04;-1.80;99.90
14723;DHT22;7452;55.594;12.986;2022-12-15T15:59:33;-1.80;99.90
14723;DHT22;7452;55.594;12.986;2022-12-15T16:02:10;-1.80;99.90
14723;DHT22;7452;55.594;12.986;2022-12-15T16:04:42;-1.90;99.90
14723;DHT22;7452;55.594;12.986;2022-12-15T16:07:16;-1.90;99.90
14723;DHT22;7452;55.594;12.986;2022-12-15T16:09:48;-1.90;99.90
14723;DHT22;7452;55.594;12.986;2022-12-15T16:12:25;-1.90;99.90
14723;DHT22;7452;55.594;12.986;2022-12-15T16:14:55;-2.00;99.90
14723;DHT22;7452;55.594;12.986;2022-12-15T16:17:30;-2.00;99.90
14723;DHT22;7452;55.594;12.986;2022-12-15T16:19:58;-2.00;99.90
14723;DHT22;7452;55.594;12.986;2022-12-15T16:22:25;-2.00;99.90
14723;DHT22;7452;55.594;12.986;2022-12-15T16:24:56;-1.90;99.90
14723;DHT22;7452;55.594;12.986;2022-12-15T16:27:26;-2.00;99.90
14723;DHT22;7452;55.594;12.986;2022-12-15T16:29:56;-2.00;99.90
14723;DHT22;7452;55.594;12.986;2022-12-15T16:32:24;-2.00;99.90
14723;DHT22;7452;55.594;12.986;2022-12-15T16:35:04;-2.00;99.90
14723;DHT22;7452;55.594;12.986;2022-12-15T16:37:36;-2.00;99.90
14723;DHT22;7452;55.594;12.986;2022-12-15T16:40:19;-1.90;99.90
14723;DHT22;7452;55.594;12.986;2022-12-15T16:42:57;-1.90;99.90
14723;DHT22;7452;55.594;12.986;2022-12-15T16:45:29;-1.90;99.90
14723;DHT22;7452;55.594;12.986;2022-12-15T16:48:03;-1.90;99.90
14723;DHT22;7452;55.594;12.986;2022-12-15T16:50:35;-2.00;99.90